Standard, Louisiana
Current Conditions -  °F | °C
As of 2:53 PM on Saturday 22 Nov 2014 (Local Time) from KESF Reporting Station
Overcast Overcast  
Wind Chill: 69°   Ceiling: 3600
Heat Index: 69°   Visibility: 10mi
Dew Point: 57°   Wind: 12mph
Humidity: 65%   Direction: 130°SE
Pressure: 30"   Gusts: 18mph
Location:  31.8657°N, 92.2616°W
Report Text: KESF 222053Z AUTO 13010G16KT 10SM OVC036 21/14 A3000 RMK AO2 SLP159 T02060139 58035
Loading
Personal Weather Stations






























Interactive Weather Map New forecast layout! Learn more

10-Day Weather Forecast

Advertisements
Track Severe Weather on mobile